sensor_id;sensor_type;location;lat;lon;timestamp;P1;durP1;ratioP1;P2;durP2;ratioP2
10293;SDS011;5192;50.328;7.610;2023-03-21T00:01:00;5.00;;;2.70;;
10293;SDS011;5192;50.328;7.610;2023-03-21T00:03:31;5.57;;;2.90;;
10293;SDS011;5192;50.328;7.610;2023-03-21T00:06:03;5.23;;;2.53;;
10293;SDS011;5192;50.328;7.610;2023-03-21T00:08:30;10.20;;;3.90;;
10293;SDS011;5192;50.328;7.610;2023-03-21T00:10:57;8.20;;;3.83;;
10293;SDS011;5192;50.328;7.610;2023-03-21T00:13:24;7.10;;;3.53;;
10293;SDS011;5192;50.328;7.610;2023-03-21T00:15:53;7.13;;;3.50;;
10293;SDS011;5192;50.328;7.610;2023-03-21T00:18:20;6.37;;;3.13;;
10293;SDS011;5192;50.328;7.610;2023-03-21T00:20:56;8.70;;;3.73;;
10293;SDS011;5192;50.328;7.610;2023-03-21T00:23:29;5.80;;;3.37;;
10293;SDS011;5192;50.328;7.610;2023-03-21T00:25:57;6.17;;;3.27;;
10293;SDS011;5192;50.328;7.610;2023-03-21T00:28:23;5.23;;;2.90;;
10293;SDS011;5192;50.328;7.610;2023-03-21T00:31:07;6.27;;;2.93;;
10293;SDS011;5192;50.328;7.610;2023-03-21T00:33:33;7.53;;;3.93;;
10293;SDS011;5192;50.328;7.610;2023-03-21T00:36:01;8.17;;;3.37;;
10293;SDS011;5192;50.328;7.610;2023-03-21T00:38:28;5.37;;;3.00;;
10293;SDS011;5192;50.328;7.610;2023-03-21T00:40:53;6.90;;;3.40;;
10293;SDS011;5192;50.328;7.610;2023-03-21T00:43:22;7.07;;;3.20;;
10293;SDS011;5192;50.328;7.610;2023-03-21T00:45:55;7.13;;;3.33;;
10293;SDS011;5192;50.328;7.610;2023-03-21T00:48:22;7.03;;;3.10;;
10293;SDS011;5192;50.328;7.610;2023-03-21T00:50:49;6.90;;;2.93;;
10293;SDS011;5192;50.328;7.610;2023-03-21T00:53:19;9.50;;;3.07;;
10293;SDS011;5192;50.328;7.610;2023-03-21T00:55:45;8.97;;;3.30;;
10293;SDS011;5192;50.328;7.610;2023-03-21T00:58:14;5.83;;;2.87;;
10293;SDS011;5192;50.328;7.610;2023-03-21T01:00:43;7.20;;;2.60;;
10293;SDS011;5192;50.328;7.610;2023-03-21T01:03:13;7.00;;;2.80;;
10293;SDS011;5192;50.328;7.610;2023-03-21T01:05:43;7.37;;;3.17;;
10293;SDS011;5192;50.328;7.610;2023-03-21T01:08:32;6.03;;;3.03;;
10293;SDS011;5192;50.328;7.610;2023-03-21T01:11:03;5.20;;;2.97;;
10293;SDS011;5192;50.328;7.610;2023-03-21T01:13:32;8.70;;;3.13;;
10293;SDS011;5192;50.328;7.610;2023-03-21T01:16:02;8.70;;;3.30;;
10293;SDS011;5192;50.328;7.610;2023-03-21T01:18:32;6.00;;;3.03;;
10293;SDS011;5192;50.328;7.610;2023-03-21T01:21:04;8.87;;;3.17;;
10293;SDS011;5192;50.328;7.610;2023-03-21T01:23:51;6.60;;;3.20;;
10293;SDS011;5192;50.328;7.610;2023-03-21T01:26:17;7.00;;;3.30;;
10293;SDS011;5192;50.328;7.610;2023-03-21T01:28:45;7.47;;;3.17;;
10293;SDS011;5192;50.328;7.610;2023-03-21T01:31:13;8.20;;;3.53;;
10293;SDS011;5192;50.328;7.610;2023-03-21T01:33:41;8.27;;;3.33;;
10293;SDS011;5192;50.328;7.610;2023-03-21T01:36:13;4.03;;;2.67;;
10293;SDS011;5192;50.328;7.610;2023-03-21T01:38:42;5.73;;;3.10;;
10293;SDS011;5192;50.328;7.610;2023-03-21T01:41:16;6.97;;;3.27;;
10293;SDS011;5192;50.328;7.610;2023-03-21T01:44:01;6.43;;;3.00;;
10293;SDS011;5192;50.328;7.610;2023-03-21T01:49:12;6.37;;;3.60;;
10293;SDS011;5192;50.328;7.610;2023-03-21T01:51:50;4.20;;;3.03;;
10293;SDS011;5192;50.328;7.610;2023-03-21T01:54:37;8.03;;;3.90;;
10293;SDS011;5192;50.328;7.610;2023-03-21T01:57:07;7.50;;;3.97;;
10293;SDS011;5192;50.328;7.610;2023-03-21T01:59:39;8.37;;;3.73;;
10293;SDS011;5192;50.328;7.610;2023-03-21T02:02:21;5.80;;;3.20;;
10293;SDS011;5192;50.328;7.610;2023-03-21T02:04:51;7.43;;;4.13;;
10293;SDS011;5192;50.328;7.610;2023-03-21T02:07:30;8.30;;;4.40;;
10293;SDS011;5192;50.328;7.610;2023-03-21T02:10:02;6.33;;;4.07;;
10293;SDS011;5192;50.328;7.610;2023-03-21T02:12:31;5.33;;;3.80;;
10293;SDS011;5192;50.328;7.610;2023-03-21T02:14:58;7.50;;;4.00;;
10293;SDS011;5192;50.328;7.610;2023-03-21T02:28:55;7.60;;;4.53;;
10293;SDS011;5192;50.328;7.610;2023-03-21T02:31:40;8.37;;;4.93;;
10293;SDS011;5192;50.328;7.610;2023-03-21T02:40:13;6.03;;;4.17;;
10293;SDS011;5192;50.328;7.610;2023-03-21T02:43:03;5.63;;;3.77;;
10293;SDS011;5192;50.328;7.610;2023-03-21T02:45:57;8.33;;;3.93;;
10293;SDS011;5192;50.328;7.610;2023-03-21T02:48:30;7.93;;;4.10;;
10293;SDS011;5192;50.328;7.610;2023-03-21T02:51:00;8.30;;;4.30;;
10293;SDS011;5192;50.328;7.610;2023-03-21T02:53:29;9.87;;;5.10;;
10293;SDS011;5192;50.328;7.610;2023-03-21T02:56:00;11.53;;;5.80;;
10293;SDS011;5192;50.328;7.610;2023-03-21T02:58:32;9.27;;;5.03;;
10293;SDS011;5192;50.328;7.610;2023-03-21T03:01:00;6.17;;;3.80;;
10293;SDS011;5192;50.328;7.610;2023-03-21T03:03:47;8.73;;;3.67;;
10293;SDS011;5192;50.328;7.610;2023-03-21T03:09:44;8.90;;;4.70;;
10293;SDS011;5192;50.328;7.610;2023-03-21T03:12:34;9.43;;;4.03;;
10293;SDS011;5192;50.328;7.610;2023-03-21T03:15:38;8.03;;;4.13;;
10293;SDS011;5192;50.328;7.610;2023-03-21T03:24:02;7.23;;;4.23;;
10293;SDS011;5192;50.328;7.610;2023-03-21T03:26:56;10.13;;;4.20;;
10293;SDS011;5192;50.328;7.610;2023-03-21T03:29:36;10.93;;;4.57;;
10293;SDS011;5192;50.328;7.610;2023-03-21T03:35:01;11.80;;;4.40;;
10293;SDS011;5192;50.328;7.610;2023-03-21T03:37:32;9.23;;;4.90;;
10293;SDS011;5192;50.328;7.610;2023-03-21T03:40:07;7.33;;;4.60;;
10293;SDS011;5192;50.328;7.610;2023-03-21T03:42:48;9.77;;;5.63;;
10293;SDS011;5192;50.328;7.610;2023-03-21T03:45:37;10.17;;;5.20;;
10293;SDS011;5192;50.328;7.610;2023-03-21T03:53:52;9.93;;;5.83;;
10293;SDS011;5192;50.328;7.610;2023-03-21T03:56:24;10.03;;;5.10;;
10293;SDS011;5192;50.328;7.610;2023-03-21T03:58:52;8.90;;;5.63;;
10293;SDS011;5192;50.328;7.610;2023-03-21T04:01:19;8.80;;;5.40;;
10293;SDS011;5192;50.328;7.610;2023-03-21T04:03:47;10.43;;;5.00;;
10293;SDS011;5192;50.328;7.610;2023-03-21T04:06:15;8.60;;;5.27;;
10293;SDS011;5192;50.328;7.610;2023-03-21T04:08:43;10.00;;;5.23;;
10293;SDS011;5192;50.328;7.610;2023-03-21T04:11:12;15.10;;;5.17;;
10293;SDS011;5192;50.328;7.610;2023-03-21T04:13:40;12.03;;;5.63;;
10293;SDS011;5192;50.328;7.610;2023-03-21T04:16:07;9.47;;;5.23;;
10293;SDS011;5192;50.328;7.610;2023-03-21T04:18:37;8.23;;;5.43;;
10293;SDS011;5192;50.328;7.610;2023-03-21T04:21:08;10.27;;;4.80;;
10293;SDS011;5192;50.328;7.610;2023-03-21T04:23:39;8.43;;;4.60;;
10293;SDS011;5192;50.328;7.610;2023-03-21T04:26:06;8.20;;;5.10;;
10293;SDS011;5192;50.328;7.610;2023-03-21T04:28:33;10.90;;;5.30;;
10293;SDS011;5192;50.328;7.610;2023-03-21T04:31:06;9.87;;;5.07;;
10293;SDS011;5192;50.328;7.610;2023-03-21T04:33:36;10.53;;;4.80;;
10293;SDS011;5192;50.328;7.610;2023-03-21T04:36:04;10.73;;;5.47;;
10293;SDS011;5192;50.328;7.610;2023-03-21T04:38:49;10.40;;;4.63;;
10293;SDS011;5192;50.328;7.610;2023-03-21T04:41:15;9.30;;;4.23;;
10293;SDS011;5192;50.328;7.610;2023-03-21T04:43:45;11.07;;;5.33;;
10293;SDS011;5192;50.328;7.610;2023-03-21T04:46:18;8.23;;;4.97;;
10293;SDS011;5192;50.328;7.610;2023-03-21T04:48:45;9.40;;;5.07;;
10293;SDS011;5192;50.328;7.610;2023-03-21T04:51:14;10.10;;;4.83;;
10293;SDS011;5192;50.328;7.610;2023-03-21T04:53:42;16.17;;;5.73;;
10293;SDS011;5192;50.328;7.610;2023-03-21T04:56:11;9.50;;;4.97;;
10293;SDS011;5192;50.328;7.610;2023-03-21T04:58:37;7.93;;;4.17;;
10293;SDS011;5192;50.328;7.610;2023-03-21T05:01:09;8.57;;;4.77;;
10293;SDS011;5192;50.328;7.610;2023-03-21T05:03:40;7.70;;;4.60;;
10293;SDS011;5192;50.328;7.610;2023-03-21T05:06:08;10.27;;;4.63;;
10293;SDS011;5192;50.328;7.610;2023-03-21T05:08:35;8.23;;;4.97;;
10293;SDS011;5192;50.328;7.610;2023-03-21T05:11:02;8.00;;;4.53;;
10293;SDS011;5192;50.328;7.610;2023-03-21T05:13:28;5.97;;;4.33;;
10293;SDS011;5192;50.328;7.610;2023-03-21T05:15:56;11.33;;;4.37;;
10293;SDS011;5192;50.328;7.610;2023-03-21T05:18:23;9.07;;;4.30;;
10293;SDS011;5192;50.328;7.610;2023-03-21T05:20:53;7.97;;;4.87;;
10293;SDS011;5192;50.328;7.610;2023-03-21T05:23:20;8.37;;;4.50;;
10293;SDS011;5192;50.328;7.610;2023-03-21T05:25:47;9.10;;;4.57;;
10293;SDS011;5192;50.328;7.610;2023-03-21T05:28:15;9.37;;;4.63;;
10293;SDS011;5192;50.328;7.610;2023-03-21T05:30:45;9.70;;;4.47;;
10293;SDS011;5192;50.328;7.610;2023-03-21T05:33:11;7.40;;;4.57;;
10293;SDS011;5192;50.328;7.610;2023-03-21T05:35:38;9.83;;;5.03;;
10293;SDS011;5192;50.328;7.610;2023-03-21T05:38:04;6.87;;;4.50;;
10293;SDS011;5192;50.328;7.610;2023-03-21T05:40:31;13.53;;;4.50;;
10293;SDS011;5192;50.328;7.610;2023-03-21T05:43:00;6.93;;;4.47;;
10293;SDS011;5192;50.328;7.610;2023-03-21T05:45:27;9.60;;;5.17;;
10293;SDS011;5192;50.328;7.610;2023-03-21T05:47:55;7.63;;;4.83;;
10293;SDS011;5192;50.328;7.610;2023-03-21T05:50:22;8.37;;;4.70;;
10293;SDS011;5192;50.328;7.610;2023-03-21T05:52:50;10.67;;;4.80;;
10293;SDS011;5192;50.328;7.610;2023-03-21T05:55:17;8.57;;;4.30;;
10293;SDS011;5192;50.328;7.610;2023-03-21T05:57:47;11.07;;;4.73;;
10293;SDS011;5192;50.328;7.610;2023-03-21T06:00:14;9.00;;;4.73;;
10293;SDS011;5192;50.328;7.610;2023-03-21T06:02:44;8.70;;;4.37;;
10293;SDS011;5192;50.328;7.610;2023-03-21T06:05:12;8.93;;;4.77;;
10293;SDS011;5192;50.328;7.610;2023-03-21T06:07:40;9.43;;;4.97;;
10293;SDS011;5192;50.328;7.610;2023-03-21T06:10:07;10.17;;;4.57;;
10293;SDS011;5192;50.328;7.610;2023-03-21T06:12:35;10.37;;;4.33;;
10293;SDS011;5192;50.328;7.610;2023-03-21T06:15:03;13.77;;;4.83;;
10293;SDS011;5192;50.328;7.610;2023-03-21T06:17:31;9.77;;;4.57;;
10293;SDS011;5192;50.328;7.610;2023-03-21T06:19:58;11.13;;;4.53;;
10293;SDS011;5192;50.328;7.610;2023-03-21T06:22:25;8.87;;;5.00;;
10293;SDS011;5192;50.328;7.610;2023-03-21T06:24:52;8.17;;;4.20;;
10293;SDS011;5192;50.328;7.610;2023-03-21T06:27:20;7.90;;;4.20;;
10293;SDS011;5192;50.328;7.610;2023-03-21T06:29:47;8.50;;;4.47;;
10293;SDS011;5192;50.328;7.610;2023-03-21T06:32:14;10.53;;;4.77;;
10293;SDS011;5192;50.328;7.610;2023-03-21T06:34:41;9.20;;;4.23;;
10293;SDS011;5192;50.328;7.610;2023-03-21T06:37:09;13.67;;;4.47;;
10293;SDS011;5192;50.328;7.610;2023-03-21T06:39:37;8.87;;;4.30;;
10293;SDS011;5192;50.328;7.610;2023-03-21T06:42:06;7.03;;;4.50;;
10293;SDS011;5192;50.328;7.610;2023-03-21T06:44:31;9.53;;;4.57;;
10293;SDS011;5192;50.328;7.610;2023-03-21T06:46:58;7.90;;;4.30;;
10293;SDS011;5192;50.328;7.610;2023-03-21T06:49:25;11.47;;;4.83;;
10293;SDS011;5192;50.328;7.610;2023-03-21T06:51:52;8.93;;;4.63;;
10293;SDS011;5192;50.328;7.610;2023-03-21T06:54:18;12.63;;;4.73;;
10293;SDS011;5192;50.328;7.610;2023-03-21T06:56:46;9.83;;;4.53;;
10293;SDS011;5192;50.328;7.610;2023-03-21T06:59:13;7.87;;;4.77;;
10293;SDS011;5192;50.328;7.610;2023-03-21T07:01:42;7.73;;;3.90;;
10293;SDS011;5192;50.328;7.610;2023-03-21T07:04:10;7.33;;;4.47;;
10293;SDS011;5192;50.328;7.610;2023-03-21T07:06:38;9.13;;;4.10;;
10293;SDS011;5192;50.328;7.610;2023-03-21T07:09:08;7.03;;;4.50;;
10293;SDS011;5192;50.328;7.610;2023-03-21T07:11:35;12.40;;;4.67;;
10293;SDS011;5192;50.328;7.610;2023-03-21T07:14:02;12.60;;;4.87;;
10293;SDS011;5192;50.328;7.610;2023-03-21T07:16:28;10.53;;;4.87;;
10293;SDS011;5192;50.328;7.610;2023-03-21T07:18:57;10.23;;;4.50;;
10293;SDS011;5192;50.328;7.610;2023-03-21T07:21:24;12.70;;;5.00;;
10293;SDS011;5192;50.328;7.610;2023-03-21T07:23:52;7.47;;;4.57;;
10293;SDS011;5192;50.328;7.610;2023-03-21T07:26:19;11.80;;;4.83;;
10293;SDS011;5192;50.328;7.610;2023-03-21T07:28:48;8.93;;;4.90;;
10293;SDS011;5192;50.328;7.610;2023-03-21T07:31:16;8.13;;;4.80;;
10293;SDS011;5192;50.328;7.610;2023-03-21T07:33:44;10.27;;;4.93;;
10293;SDS011;5192;50.328;7.610;2023-03-21T07:36:14;9.37;;;4.50;;
10293;SDS011;5192;50.328;7.610;2023-03-21T07:38:43;8.57;;;4.67;;
10293;SDS011;5192;50.328;7.610;2023-03-21T07:41:12;11.30;;;4.80;;
10293;SDS011;5192;50.328;7.610;2023-03-21T07:43:37;11.30;;;5.00;;
10293;SDS011;5192;50.328;7.610;2023-03-21T07:46:05;5.97;;;4.00;;
10293;SDS011;5192;50.328;7.610;2023-03-21T07:48:33;11.53;;;4.97;;
10293;SDS011;5192;50.328;7.610;2023-03-21T07:50:59;10.37;;;4.90;;
10293;SDS011;5192;50.328;7.610;2023-03-21T07:53:27;7.30;;;4.60;;
10293;SDS011;5192;50.328;7.610;2023-03-21T07:55:55;8.33;;;4.83;;
10293;SDS011;5192;50.328;7.610;2023-03-21T07:58:23;10.30;;;5.13;;
10293;SDS011;5192;50.328;7.610;2023-03-21T08:00:51;10.70;;;5.13;;
10293;SDS011;5192;50.328;7.610;2023-03-21T08:03:21;9.30;;;4.70;;
10293;SDS011;5192;50.328;7.610;2023-03-21T08:05:48;8.07;;;4.87;;
10293;SDS011;5192;50.328;7.610;2023-03-21T08:08:14;8.97;;;5.23;;
10293;SDS011;5192;50.328;7.610;2023-03-21T08:10:44;10.73;;;4.70;;
10293;SDS011;5192;50.328;7.610;2023-03-21T08:13:13;9.33;;;4.87;;
10293;SDS011;5192;50.328;7.610;2023-03-21T08:15:40;9.37;;;4.70;;
10293;SDS011;5192;50.328;7.610;2023-03-21T08:18:09;11.97;;;5.13;;
10293;SDS011;5192;50.328;7.610;2023-03-21T08:20:37;9.80;;;5.20;;
10293;SDS011;5192;50.328;7.610;2023-03-21T08:23:06;8.43;;;4.37;;
10293;SDS011;5192;50.328;7.610;2023-03-21T08:25:35;10.50;;;4.83;;
10293;SDS011;5192;50.328;7.610;2023-03-21T08:28:02;7.90;;;5.00;;
10293;SDS011;5192;50.328;7.610;2023-03-21T08:30:31;8.53;;;4.67;;
10293;SDS011;5192;50.328;7.610;2023-03-21T08:32:58;8.40;;;5.03;;
10293;SDS011;5192;50.328;7.610;2023-03-21T08:35:25;11.37;;;5.00;;
10293;SDS011;5192;50.328;7.610;2023-03-21T08:37:52;10.03;;;4.87;;
10293;SDS011;5192;50.328;7.610;2023-03-21T08:40:19;9.40;;;5.67;;
10293;SDS011;5192;50.328;7.610;2023-03-21T08:42:45;8.53;;;5.27;;
10293;SDS011;5192;50.328;7.610;2023-03-21T08:45:11;8.60;;;5.17;;
10293;SDS011;5192;50.328;7.610;2023-03-21T08:47:40;10.13;;;5.07;;
10293;SDS011;5192;50.328;7.610;2023-03-21T08:50:08;11.37;;;5.33;;
10293;SDS011;5192;50.328;7.610;2023-03-21T08:52:40;9.80;;;5.13;;
10293;SDS011;5192;50.328;7.610;2023-03-21T08:55:09;9.50;;;5.13;;
10293;SDS011;5192;50.328;7.610;2023-03-21T08:57:37;9.57;;;5.23;;
10293;SDS011;5192;50.328;7.610;2023-03-21T09:00:04;12.53;;;5.90;;
10293;SDS011;5192;50.328;7.610;2023-03-21T09:02:38;9.17;;;4.87;;
10293;SDS011;5192;50.328;7.610;2023-03-21T09:05:09;11.23;;;5.50;;
10293;SDS011;5192;50.328;7.610;2023-03-21T09:07:42;10.00;;;5.60;;
10293;SDS011;5192;50.328;7.610;2023-03-21T09:10:10;7.47;;;5.07;;
10293;SDS011;5192;50.328;7.610;2023-03-21T09:12:43;10.13;;;5.40;;
10293;SDS011;5192;50.328;7.610;2023-03-21T09:15:16;9.10;;;5.33;;
10293;SDS011;5192;50.328;7.610;2023-03-21T09:17:44;11.30;;;5.53;;
10293;SDS011;5192;50.328;7.610;2023-03-21T09:20:15;8.20;;;5.27;;
10293;SDS011;5192;50.328;7.610;2023-03-21T09:22:48;8.50;;;4.77;;
10293;SDS011;5192;50.328;7.610;2023-03-21T09:25:16;8.50;;;5.17;;
10293;SDS011;5192;50.328;7.610;2023-03-21T09:27:44;8.23;;;4.67;;
10293;SDS011;5192;50.328;7.610;2023-03-21T09:30:13;8.40;;;4.90;;
10293;SDS011;5192;50.328;7.610;2023-03-21T09:32:46;11.70;;;5.23;;
10293;SDS011;5192;50.328;7.610;2023-03-21T09:35:14;11.37;;;5.27;;
10293;SDS011;5192;50.328;7.610;2023-03-21T09:37:47;11.43;;;5.20;;
10293;SDS011;5192;50.328;7.610;2023-03-21T09:49:33;11.23;;;5.53;;
10293;SDS011;5192;50.328;7.610;2023-03-21T09:52:16;10.33;;;6.20;;
10293;SDS011;5192;50.328;7.610;2023-03-21T09:55:23;11.47;;;6.13;;
10293;SDS011;5192;50.328;7.610;2023-03-21T10:03:36;12.73;;;6.87;;
10293;SDS011;5192;50.328;7.610;2023-03-21T10:06:04;10.13;;;6.53;;
10293;SDS011;5192;50.328;7.610;2023-03-21T10:08:38;10.53;;;6.50;;
10293;SDS011;5192;50.328;7.610;2023-03-21T10:17:21;11.37;;;6.57;;
10293;SDS011;5192;50.328;7.610;2023-03-21T10:20:21;11.40;;;5.73;;
10293;SDS011;5192;50.328;7.610;2023-03-21T10:22:55;8.67;;;5.10;;
10293;SDS011;5192;50.328;7.610;2023-03-21T10:25:34;7.87;;;4.77;;
10293;SDS011;5192;50.328;7.610;2023-03-21T10:28:06;8.77;;;5.10;;
10293;SDS011;5192;50.328;7.610;2023-03-21T10:30:45;7.53;;;5.40;;
10293;SDS011;5192;50.328;7.610;2023-03-21T10:33:22;8.33;;;4.73;;
10293;SDS011;5192;50.328;7.610;2023-03-21T10:35:55;9.43;;;4.70;;
10293;SDS011;5192;50.328;7.610;2023-03-21T10:38:28;10.37;;;4.73;;
10293;SDS011;5192;50.328;7.610;2023-03-21T10:40:56;9.70;;;4.93;;
10293;SDS011;5192;50.328;7.610;2023-03-21T10:45:50;9.23;;;5.20;;
10293;SDS011;5192;50.328;7.610;2023-03-21T10:48:17;9.07;;;4.83;;
10293;SDS011;5192;50.328;7.610;2023-03-21T10:50:56;9.33;;;5.33;;
10293;SDS011;5192;50.328;7.610;2023-03-21T10:53:34;8.10;;;5.20;;
10293;SDS011;5192;50.328;7.610;2023-03-21T10:56:07;10.53;;;5.70;;
10293;SDS011;5192;50.328;7.610;2023-03-21T10:58:46;7.67;;;5.07;;
10293;SDS011;5192;50.328;7.610;2023-03-21T11:01:22;7.33;;;5.10;;
10293;SDS011;5192;50.328;7.610;2023-03-21T11:03:57;9.07;;;4.83;;
10293;SDS011;5192;50.328;7.610;2023-03-21T11:06:36;10.13;;;5.27;;
10293;SDS011;5192;50.328;7.610;2023-03-21T11:09:17;8.17;;;4.60;;
10293;SDS011;5192;50.328;7.610;2023-03-21T11:14:46;8.07;;;4.50;;
10293;SDS011;5192;50.328;7.610;2023-03-21T11:20:03;8.10;;;5.07;;
10293;SDS011;5192;50.328;7.610;2023-03-21T11:22:41;9.53;;;5.27;;
10293;SDS011;5192;50.328;7.610;2023-03-21T11:25:09;8.03;;;5.23;;
10293;SDS011;5192;50.328;7.610;2023-03-21T11:27:57;8.57;;;5.20;;
10293;SDS011;5192;50.328;7.610;2023-03-21T11:30:31;9.13;;;4.80;;
10293;SDS011;5192;50.328;7.610;2023-03-21T11:33:02;7.90;;;4.70;;
10293;SDS011;5192;50.328;7.610;2023-03-21T11:35:32;10.07;;;4.63;;
10293;SDS011;5192;50.328;7.610;2023-03-21T11:38:02;8.30;;;4.83;;
10293;SDS011;5192;50.328;7.610;2023-03-21T11:46:21;6.63;;;4.33;;
10293;SDS011;5192;50.328;7.610;2023-03-21T11:48:53;7.50;;;4.97;;
10293;SDS011;5192;50.328;7.610;2023-03-21T11:57:52;10.53;;;5.17;;
10293;SDS011;5192;50.328;7.610;2023-03-21T12:00:42;7.33;;;4.90;;
10293;SDS011;5192;50.328;7.610;2023-03-21T12:15:21;10.63;;;4.43;;
10293;SDS011;5192;50.328;7.610;2023-03-21T12:18:03;8.20;;;4.13;;
10293;SDS011;5192;50.328;7.610;2023-03-21T12:20:45;8.33;;;4.43;;
10293;SDS011;5192;50.328;7.610;2023-03-21T12:29:39;7.40;;;3.90;;
10293;SDS011;5192;50.328;7.610;2023-03-21T12:38:39;5.13;;;4.00;;
10293;SDS011;5192;50.328;7.610;2023-03-21T12:41:50;7.03;;;4.20;;
10293;SDS011;5192;50.328;7.610;2023-03-21T12:44:33;7.80;;;4.20;;
10293;SDS011;5192;50.328;7.610;2023-03-21T12:47:20;7.17;;;4.17;;
10293;SDS011;5192;50.328;7.610;2023-03-21T12:50:12;7.47;;;4.40;;
10293;SDS011;5192;50.328;7.610;2023-03-21T12:52:50;7.40;;;4.17;;
10293;SDS011;5192;50.328;7.610;2023-03-21T12:55:31;6.90;;;4.27;;
10293;SDS011;5192;50.328;7.610;2023-03-21T12:58:02;7.47;;;4.13;;
10293;SDS011;5192;50.328;7.610;2023-03-21T13:00:48;6.57;;;4.47;;
10293;SDS011;5192;50.328;7.610;2023-03-21T13:03:31;7.23;;;4.20;;
10293;SDS011;5192;50.328;7.610;2023-03-21T13:06:21;7.73;;;4.83;;
10293;SDS011;5192;50.328;7.610;2023-03-21T13:11:45;7.00;;;4.30;;
10293;SDS011;5192;50.328;7.610;2023-03-21T13:14:14;6.53;;;4.40;;
10293;SDS011;5192;50.328;7.610;2023-03-21T13:17:03;7.63;;;4.33;;
10293;SDS011;5192;50.328;7.610;2023-03-21T13:19:53;5.80;;;4.43;;
10293;SDS011;5192;50.328;7.610;2023-03-21T13:22:32;9.23;;;5.00;;
10293;SDS011;5192;50.328;7.610;2023-03-21T13:28:02;7.17;;;4.50;;
10293;SDS011;5192;50.328;7.610;2023-03-21T13:30:30;7.63;;;4.70;;
10293;SDS011;5192;50.328;7.610;2023-03-21T13:36:04;7.70;;;4.47;;
10293;SDS011;5192;50.328;7.610;2023-03-21T13:38:33;6.03;;;4.60;;
10293;SDS011;5192;50.328;7.610;2023-03-21T13:44:04;6.03;;;4.80;;
10293;SDS011;5192;50.328;7.610;2023-03-21T13:46:59;9.33;;;4.80;;
10293;SDS011;5192;50.328;7.610;2023-03-21T13:52:33;7.53;;;5.00;;
10293;SDS011;5192;50.328;7.610;2023-03-21T13:55:02;6.57;;;4.83;;
10293;SDS011;5192;50.328;7.610;2023-03-21T14:03:05;6.53;;;4.07;;
10293;SDS011;5192;50.328;7.610;2023-03-21T14:05:38;6.77;;;4.13;;
10293;SDS011;5192;50.328;7.610;2023-03-21T14:08:04;8.47;;;4.77;;
10293;SDS011;5192;50.328;7.610;2023-03-21T14:13:26;8.33;;;4.50;;
10293;SDS011;5192;50.328;7.610;2023-03-21T14:15:59;6.17;;;4.43;;
10293;SDS011;5192;50.328;7.610;2023-03-21T14:18:45;5.50;;;4.20;;
10293;SDS011;5192;50.328;7.610;2023-03-21T14:21:34;7.40;;;4.60;;
10293;SDS011;5192;50.328;7.610;2023-03-21T14:24:04;5.23;;;4.30;;
10293;SDS011;5192;50.328;7.610;2023-03-21T14:26:42;7.57;;;4.40;;
10293;SDS011;5192;50.328;7.610;2023-03-21T14:29:33;6.33;;;4.60;;
10293;SDS011;5192;50.328;7.610;2023-03-21T14:32:01;7.87;;;4.90;;
10293;SDS011;5192;50.328;7.610;2023-03-21T14:34:34;7.50;;;4.63;;
10293;SDS011;5192;50.328;7.610;2023-03-21T14:37:01;7.43;;;4.67;;
10293;SDS011;5192;50.328;7.610;2023-03-21T14:39:32;5.97;;;4.07;;
10293;SDS011;5192;50.328;7.610;2023-03-21T14:42:05;6.60;;;4.37;;
10293;SDS011;5192;50.328;7.610;2023-03-21T14:44:41;6.10;;;4.30;;
10293;SDS011;5192;50.328;7.610;2023-03-21T14:47:17;6.57;;;4.70;;
10293;SDS011;5192;50.328;7.610;2023-03-21T14:49:57;4.90;;;4.30;;
10293;SDS011;5192;50.328;7.610;2023-03-21T14:52:29;6.30;;;4.57;;
10293;SDS011;5192;50.328;7.610;2023-03-21T14:55:11;5.03;;;4.50;;
10293;SDS011;5192;50.328;7.610;2023-03-21T14:57:40;5.43;;;4.13;;
10293;SDS011;5192;50.328;7.610;2023-03-21T15:00:21;5.90;;;4.33;;
10293;SDS011;5192;50.328;7.610;2023-03-21T15:02:53;6.97;;;4.93;;
10293;SDS011;5192;50.328;7.610;2023-03-21T15:05:30;5.80;;;4.20;;
10293;SDS011;5192;50.328;7.610;2023-03-21T15:16:21;7.90;;;4.60;;
10293;SDS011;5192;50.328;7.610;2023-03-21T15:18:48;6.57;;;4.73;;
10293;SDS011;5192;50.328;7.610;2023-03-21T15:21:20;5.43;;;4.53;;
10293;SDS011;5192;50.328;7.610;2023-03-21T15:23:57;6.87;;;4.30;;
10293;SDS011;5192;50.328;7.610;2023-03-21T15:26:39;5.53;;;4.57;;
10293;SDS011;5192;50.328;7.610;2023-03-21T15:29:09;6.67;;;4.57;;
10293;SDS011;5192;50.328;7.610;2023-03-21T15:31:38;5.00;;;4.00;;
10293;SDS011;5192;50.328;7.610;2023-03-21T15:34:04;6.73;;;4.33;;
10293;SDS011;5192;50.328;7.610;2023-03-21T15:36:31;4.77;;;4.37;;
10293;SDS011;5192;50.328;7.610;2023-03-21T15:39:11;7.10;;;4.33;;
10293;SDS011;5192;50.328;7.610;2023-03-21T15:41:54;6.33;;;4.27;;
10293;SDS011;5192;50.328;7.610;2023-03-21T15:44:47;5.40;;;4.37;;
10293;SDS011;5192;50.328;7.610;2023-03-21T15:50:35;7.37;;;5.20;;
10293;SDS011;5192;50.328;7.610;2023-03-21T15:53:10;5.20;;;4.53;;
10293;SDS011;5192;50.328;7.610;2023-03-21T15:55:42;6.67;;;4.60;;
10293;SDS011;5192;50.328;7.610;2023-03-21T15:58:47;6.83;;;5.30;;
10293;SDS011;5192;50.328;7.610;2023-03-21T16:01:20;7.57;;;4.70;;
10293;SDS011;5192;50.328;7.610;2023-03-21T16:03:56;6.30;;;4.67;;
10293;SDS011;5192;50.328;7.610;2023-03-21T16:06:31;5.97;;;4.80;;
10293;SDS011;5192;50.328;7.610;2023-03-21T16:11:42;5.87;;;4.40;;
10293;SDS011;5192;50.328;7.610;2023-03-21T16:14:12;4.80;;;4.30;;
10293;SDS011;5192;50.328;7.610;2023-03-21T16:16:38;6.33;;;4.53;;
10293;SDS011;5192;50.328;7.610;2023-03-21T16:19:06;5.67;;;4.37;;
10293;SDS011;5192;50.328;7.610;2023-03-21T16:21:32;6.43;;;4.53;;
10293;SDS011;5192;50.328;7.610;2023-03-21T16:23:59;6.27;;;4.80;;
10293;SDS011;5192;50.328;7.610;2023-03-21T16:26:28;5.63;;;4.83;;
10293;SDS011;5192;50.328;7.610;2023-03-21T16:28:56;6.97;;;5.27;;
10293;SDS011;5192;50.328;7.610;2023-03-21T16:31:31;5.50;;;4.50;;
10293;SDS011;5192;50.328;7.610;2023-03-21T16:33:59;7.03;;;4.80;;
10293;SDS011;5192;50.328;7.610;2023-03-21T16:36:28;5.67;;;4.73;;
10293;SDS011;5192;50.328;7.610;2023-03-21T16:38:56;7.27;;;4.70;;
10293;SDS011;5192;50.328;7.610;2023-03-21T16:41:25;6.87;;;5.47;;
10293;SDS011;5192;50.328;7.610;2023-03-21T16:43:53;5.77;;;5.20;;
10293;SDS011;5192;50.328;7.610;2023-03-21T16:46:20;5.97;;;4.80;;
10293;SDS011;5192;50.328;7.610;2023-03-21T16:48:54;5.67;;;4.70;;
10293;SDS011;5192;50.328;7.610;2023-03-21T16:51:40;7.93;;;5.20;;
10293;SDS011;5192;50.328;7.610;2023-03-21T16:54:07;5.73;;;4.37;;
10293;SDS011;5192;50.328;7.610;2023-03-21T16:56:38;5.43;;;4.70;;
10293;SDS011;5192;50.328;7.610;2023-03-21T16:59:12;7.50;;;4.63;;
10293;SDS011;5192;50.328;7.610;2023-03-21T17:01:38;5.73;;;4.60;;
10293;SDS011;5192;50.328;7.610;2023-03-21T17:04:07;6.17;;;4.83;;
10293;SDS011;5192;50.328;7.610;2023-03-21T17:06:36;6.37;;;5.00;;
10293;SDS011;5192;50.328;7.610;2023-03-21T17:09:09;8.03;;;5.00;;
10293;SDS011;5192;50.328;7.610;2023-03-21T17:11:38;7.10;;;4.80;;
10293;SDS011;5192;50.328;7.610;2023-03-21T17:14:07;5.50;;;4.80;;
10293;SDS011;5192;50.328;7.610;2023-03-21T17:16:35;6.57;;;4.50;;
10293;SDS011;5192;50.328;7.610;2023-03-21T17:19:39;6.27;;;4.30;;
10293;SDS011;5192;50.328;7.610;2023-03-21T17:21:59;5.47;;;4.50;;
10293;SDS011;5192;50.328;7.610;2023-03-21T17:24:26;6.17;;;4.30;;
10293;SDS011;5192;50.328;7.610;2023-03-21T17:26:55;5.20;;;4.10;;
10293;SDS011;5192;50.328;7.610;2023-03-21T17:29:22;4.13;;;3.73;;
10293;SDS011;5192;50.328;7.610;2023-03-21T17:31:50;6.13;;;4.20;;
10293;SDS011;5192;50.328;7.610;2023-03-21T17:34:18;6.23;;;4.30;;
10293;SDS011;5192;50.328;7.610;2023-03-21T17:36:47;7.33;;;4.63;;
10293;SDS011;5192;50.328;7.610;2023-03-21T17:39:23;5.57;;;4.50;;
10293;SDS011;5192;50.328;7.610;2023-03-21T17:41:52;5.03;;;4.37;;
10293;SDS011;5192;50.328;7.610;2023-03-21T17:44:18;6.10;;;4.67;;
10293;SDS011;5192;50.328;7.610;2023-03-21T17:46:46;5.40;;;4.60;;
10293;SDS011;5192;50.328;7.610;2023-03-21T17:49:12;6.13;;;4.50;;